createdAt,value
2022-08-01T00:01:14.069Z,72.68
2022-08-01T00:06:05.961Z,72.74
2022-08-01T00:11:01.363Z,73.19
2022-08-01T00:15:54.536Z,73.35
2022-08-01T00:20:46.496Z,73.71
2022-08-01T00:25:38.162Z,74.42
2022-08-01T00:30:29.873Z,74.57
2022-08-01T00:35:21.534Z,74.67
2022-08-01T00:40:13.345Z,75.29
2022-08-01T00:45:05.716Z,75.52
2022-08-01T00:49:57.597Z,75.75
2022-08-01T00:54:49.367Z,75.71
2022-08-01T00:59:41.813Z,76.17
2022-08-01T01:04:33.954Z,76.13
2022-08-01T01:09:31.483Z,76.51
2022-08-01T01:14:34.571Z,76.48
2022-08-01T01:19:31.281Z,77.28
2022-08-01T01:24:53.499Z,77.36
2022-08-01T01:30:00.404Z,77.43
2022-08-01T01:34:55.370Z,77.58
2022-08-01T01:39:54.094Z,78.36
2022-08-01T01:44:47.582Z,78.63
2022-08-01T01:49:42.302Z,79.12
2022-08-01T01:54:41.818Z,79.04
2022-08-01T01:59:37.501Z,79.14
2022-08-01T02:04:30.107Z,79.29
2022-08-01T02:09:24.265Z,79.55
2022-08-01T02:14:17.928Z,79.61
2022-08-01T02:19:11.242Z,79.93
2022-08-01T02:24:10.762Z,79.97
2022-08-01T02:29:07.950Z,79.66
2022-08-01T02:34:10.437Z,79.90
2022-08-01T02:39:08.691Z,79.87
2022-08-01T02:44:04.556Z,79.82
2022-08-01T02:48:59.592Z,80.05
2022-08-01T02:53:54.724Z,80.18
2022-08-01T02:58:48.193Z,80.42
2022-08-01T03:03:42.088Z,80.48
2022-08-01T03:08:36.042Z,80.37
2022-08-01T03:13:29.742Z,80.42
2022-08-01T03:18:25.249Z,80.14
2022-08-01T03:23:18.355Z,80.42
2022-08-01T03:28:14.520Z,80.31
2022-08-01T03:33:06.495Z,80.43
2022-08-01T03:38:15.737Z,80.09
2022-08-01T03:43:18.198Z,80.63
2022-08-01T03:48:14.615Z,80.97
2022-08-01T03:53:10.756Z,80.80
2022-08-01T03:58:09.566Z,80.57
2022-08-01T04:03:01.781Z,80.88
2022-08-01T04:07:57.002Z,81.14
2022-08-01T04:12:48.720Z,81.35
2022-08-01T04:17:40.588Z,81.41
2022-08-01T04:22:32.230Z,81.30
2022-08-01T04:27:51.192Z,80.80
2022-08-01T04:32:46.187Z,80.95
2022-08-01T04:37:39.997Z,81.68
2022-08-01T04:42:33.585Z,81.35
2022-08-01T04:47:27.228Z,81.79
2022-08-01T04:52:24.857Z,81.75
2022-08-01T04:57:16.694Z,81.78
2022-08-01T05:02:10.578Z,82.10
2022-08-01T05:07:02.685Z,81.89
2022-08-01T05:11:54.531Z,82.69
2022-08-01T05:16:46.817Z,82.55
2022-08-01T05:21:38.710Z,82.82
2022-08-01T05:26:30.394Z,82.69
2022-08-01T05:31:23.667Z,82.78
2022-08-01T05:36:15.446Z,82.70
2022-08-01T05:41:07.140Z,82.56
2022-08-01T05:45:59.568Z,82.85
2022-08-01T05:50:58.013Z,81.94
2022-08-01T05:55:50.133Z,81.74
2022-08-01T06:00:41.753Z,82.25
2022-08-01T06:05:33.405Z,83.03
2022-08-01T06:10:25.276Z,83.39
2022-08-01T06:15:16.937Z,82.94
2022-08-01T06:20:09.540Z,81.97
2022-08-01T06:25:01.178Z,80.76
2022-08-01T06:29:55.909Z,80.05
2022-08-01T06:34:47.581Z,78.63
2022-08-01T06:39:39.241Z,77.80
2022-08-01T06:44:30.842Z,77.64
2022-08-01T06:49:22.567Z,77.41
2022-08-01T06:54:14.267Z,76.94
2022-08-01T06:59:05.889Z,76.11
2022-08-01T07:03:57.701Z,76.17
2022-08-01T07:08:49.331Z,75.86
2022-08-01T07:13:44.027Z,72.03
2022-08-01T07:18:37.388Z,63.66
2022-08-01T07:23:33.043Z,61.30
2022-08-01T07:28:26.151Z,57.44
2022-08-01T07:33:17.819Z,53.81
2022-08-01T07:38:12.648Z,53.22
2022-08-01T07:43:04.745Z,49.82
2022-08-01T07:47:56.390Z,48.91
2022-08-01T07:52:48.140Z,44.85
2022-08-01T07:57:39.856Z,45.04
2022-08-01T08:02:31.566Z,45.10
2022-08-01T08:07:23.326Z,44.36
2022-08-01T08:12:14.952Z,42.79
2022-08-01T08:17:07.266Z,42.94
2022-08-01T08:21:58.929Z,41.67
2022-08-01T08:26:57.330Z,39.64
2022-08-01T08:31:51.871Z,39.05
2022-08-01T08:36:47.877Z,38.04
2022-08-01T08:41:39.812Z,37.29
2022-08-01T08:46:35.833Z,36.66
2022-08-01T08:51:28.611Z,36.09
2022-08-01T08:56:24.224Z,35.65
2022-08-01T09:01:23.008Z,34.49
2022-08-01T09:06:15.161Z,34.27
2022-08-01T09:11:07.405Z,33.97
2022-08-01T09:16:02.267Z,33.27
2022-08-01T09:21:09.438Z,32.92
2022-08-01T09:26:01.117Z,32.57
2022-08-01T09:30:52.763Z,32.26
2022-08-01T09:35:46.302Z,32.33
2022-08-01T09:40:58.258Z,31.95
2022-08-01T09:45:53.468Z,32.54
2022-08-01T09:50:50.654Z,31.91
2022-08-01T09:55:43.558Z,31.04
2022-08-01T10:00:45.395Z,32.48
2022-08-01T10:05:37.579Z,31.32
2022-08-01T10:10:31.655Z,32.76
2022-08-01T10:15:36.977Z,31.69
2022-08-01T10:20:32.346Z,31.01
2022-08-01T10:25:41.938Z,31.81
2022-08-01T10:30:35.623Z,31.00
2022-08-01T10:35:47.349Z,29.87
2022-08-01T10:40:40.632Z,31.32
2022-08-01T10:45:32.649Z,29.82
2022-08-01T10:50:43.134Z,31.34
2022-08-01T10:55:50.408Z,30.74
2022-08-01T11:00:42.274Z,29.98
2022-08-01T11:05:36.118Z,28.19
2022-08-01T11:10:33.968Z,30.36
2022-08-01T11:15:29.114Z,29.32
2022-08-01T11:20:25.428Z,29.79
2022-08-01T11:25:19.004Z,30.40
2022-08-01T11:30:13.100Z,30.27
2022-08-01T11:35:05.587Z,31.89
2022-08-01T11:40:16.897Z,31.29
2022-08-01T11:45:16.725Z,31.29
2022-08-01T11:50:29.930Z,31.22
2022-08-01T11:55:21.870Z,33.25
2022-08-01T12:00:20.478Z,32.69
2022-08-01T12:05:15.623Z,31.14
2022-08-01T12:10:18.723Z,32.29
2022-08-01T12:15:11.488Z,34.21
2022-08-01T12:20:06.162Z,34.64
2022-08-01T12:25:07.443Z,33.30
2022-08-01T12:30:00.490Z,33.84
2022-08-01T12:34:56.116Z,34.56
2022-08-01T12:39:51.741Z,33.91
2022-08-01T12:44:46.726Z,34.26
2022-08-01T12:49:39.090Z,33.87
2022-08-01T12:54:31.074Z,34.17
2022-08-01T12:59:25.861Z,35.28
2022-08-01T13:04:17.625Z,36.34
2022-08-01T13:09:12.491Z,35.56
2022-08-01T13:14:04.267Z,35.73
2022-08-01T13:18:57.789Z,35.60
2022-08-01T13:24:10.763Z,37.13
2022-08-01T13:29:07.254Z,38.25
2022-08-01T13:34:00.249Z,36.84
2022-08-01T13:39:10.980Z,36.08
2022-08-01T13:44:02.737Z,36.50
2022-08-01T13:48:54.403Z,37.31
2022-08-01T13:53:46.340Z,37.87
2022-08-01T13:58:38.050Z,36.89
2022-08-01T14:03:33.906Z,37.58
2022-08-01T14:08:25.674Z,37.53
2022-08-01T14:13:17.338Z,38.00
2022-08-01T14:18:10.065Z,39.08
2022-08-01T14:23:02.843Z,37.99
2022-08-01T14:27:54.496Z,38.72
2022-08-01T14:32:46.187Z,39.14
2022-08-01T14:37:38.644Z,39.61
2022-08-01T14:42:30.535Z,39.73
2022-08-01T14:47:22.687Z,39.52
2022-08-01T14:52:14.387Z,39.38
2022-08-01T14:57:06.115Z,40.45
2022-08-01T15:01:57.770Z,40.00
2022-08-01T15:06:49.394Z,39.52
2022-08-01T15:11:41.030Z,38.14
2022-08-01T15:16:32.678Z,38.89
2022-08-01T15:21:40.826Z,39.55
2022-08-01T15:26:33.957Z,39.34
2022-08-01T15:31:25.614Z,39.63
2022-08-01T15:36:19.458Z,40.01
2022-08-01T15:41:17.621Z,39.99
2022-08-01T15:46:09.742Z,40.56
2022-08-01T15:51:01.395Z,39.93
2022-08-01T15:55:53.011Z,39.47
2022-08-01T16:00:44.679Z,40.02
2022-08-01T16:05:42.846Z,40.87
2022-08-01T16:10:35.633Z,40.85
2022-08-01T16:15:31.341Z,39.93
2022-08-01T16:20:28.873Z,39.78
2022-08-01T16:25:20.542Z,40.76
2022-08-01T16:30:12.881Z,40.55
2022-08-01T16:35:04.921Z,41.26
2022-08-01T16:39:56.609Z,41.78
2022-08-01T16:44:48.205Z,43.09
2022-08-01T16:49:41.639Z,43.13
2022-08-01T16:54:33.372Z,42.02
2022-08-01T16:59:25.055Z,43.75
2022-08-01T17:04:16.706Z,43.09
2022-08-01T17:09:09.403Z,42.46
2022-08-01T17:14:01.078Z,43.22
2022-08-01T17:18:52.760Z,43.77
2022-08-01T17:23:44.431Z,43.70
2022-08-01T17:28:36.080Z,44.38
2022-08-01T17:33:45.583Z,44.62
2022-08-01T17:38:37.906Z,44.81
2022-08-01T17:43:29.595Z,45.21
2022-08-01T17:48:21.258Z,46.05
2022-08-01T17:53:14.246Z,47.04
2022-08-01T17:58:06.617Z,48.55
2022-08-01T18:02:58.240Z,51.00
2022-08-01T18:08:00.628Z,53.45
2022-08-01T18:12:53.997Z,55.37
2022-08-01T18:17:46.010Z,57.86
2022-08-01T18:22:37.801Z,56.75
2022-08-01T18:28:16.033Z,58.73
2022-08-01T18:32:42.511Z,59.81
2022-08-01T18:37:34.318Z,61.15
2022-08-01T18:42:32.588Z,62.22
2022-08-01T18:47:24.284Z,63.49
2022-08-01T18:52:15.878Z,64.14
2022-08-01T18:57:08.363Z,66.43
2022-08-01T19:02:00.507Z,67.32
2022-08-01T19:06:53.531Z,68.43
2022-08-01T19:11:45.378Z,69.38
2022-08-01T19:16:37.288Z,70.37
2022-08-01T19:21:28.987Z,71.37
2022-08-01T19:26:23.433Z,72.82
2022-08-01T19:31:15.470Z,73.59
2022-08-01T19:36:16.244Z,73.55
2022-08-01T19:41:07.993Z,74.05
2022-08-01T19:46:07.600Z,74.73
2022-08-01T19:51:15.169Z,76.34
2022-08-01T19:56:08.385Z,77.64
2022-08-01T20:01:00.247Z,79.53
2022-08-01T20:05:52.021Z,80.02
2022-08-01T20:10:46.511Z,80.24
2022-08-01T20:15:39.050Z,80.81
2022-08-01T20:20:32.212Z,80.73
2022-08-01T20:25:33.594Z,80.33
2022-08-01T20:30:32.940Z,81.11
2022-08-01T20:35:52.061Z,80.43
2022-08-01T20:40:37.000Z,80.52
2022-08-01T20:45:28.683Z,80.82
2022-08-01T20:50:52.849Z,80.25
2022-08-01T20:55:54.523Z,80.05
2022-08-01T21:00:50.612Z,80.54
2022-08-01T21:05:55.941Z,80.09
2022-08-01T21:10:57.094Z,81.02
2022-08-01T21:16:04.167Z,81.49
2022-08-01T21:21:15.713Z,81.51
2022-08-01T21:26:12.376Z,82.26
2022-08-01T21:31:04.354Z,82.74
2022-08-01T21:36:06.110Z,82.97
2022-08-01T21:41:03.454Z,83.11
2022-08-01T21:45:58.338Z,83.90
2022-08-01T21:50:58.417Z,84.38
2022-08-01T21:56:14.621Z,84.67
2022-08-01T22:01:13.597Z,85.39
2022-08-01T22:06:06.494Z,85.25
2022-08-01T22:11:03.173Z,85.76
2022-08-01T22:15:58.325Z,85.52
2022-08-01T22:20:53.111Z,85.94
2022-08-01T22:25:45.833Z,86.51
2022-08-01T22:30:42.205Z,87.53
2022-08-01T22:35:35.832Z,88.27
2022-08-01T22:40:32.996Z,88.47
2022-08-01T22:45:51.586Z,88.86
2022-08-01T22:50:46.565Z,88.75
2022-08-01T22:55:58.666Z,89.76
2022-08-01T23:00:55.840Z,89.89
2022-08-01T23:06:03.947Z,90.41
2022-08-01T23:10:55.764Z,90.60
2022-08-01T23:15:52.570Z,91.49
2022-08-01T23:20:45.194Z,92.22
2022-08-01T23:25:37.607Z,92.85
2022-08-01T23:30:31.545Z,93.64
2022-08-01T23:35:24.384Z,94.06
2022-08-01T23:40:16.627Z,94.53
2022-08-01T23:45:08.645Z,95.13
2022-08-01T23:50:00.424Z,95.75
2022-08-01T23:54:52.057Z,96.34
2022-08-01T23:59:53.038Z,96.92
